sensor_id;sensor_type;location;lat;lon;timestamp;pressure;altitude;pressure_sealevel;temperature;humidity
43450;BME280;29041;42.266;23.110;2023-12-28T00:00:26;96928.91;;;8.88;58.02
43450;BME280;29041;42.266;23.110;2023-12-28T00:03:14;96933.44;;;8.18;59.12
43450;BME280;29041;42.266;23.110;2023-12-28T00:06:01;96939.31;;;8.20;59.45
43450;BME280;29041;42.266;23.110;2023-12-28T00:08:48;96947.13;;;8.56;58.12
43450;BME280;29041;42.266;23.110;2023-12-28T00:11:35;96946.53;;;8.65;57.26
43450;BME280;29041;42.266;23.110;2023-12-28T00:14:23;96931.38;;;9.14;55.49
43450;BME280;29041;42.266;23.110;2023-12-28T00:17:10;96952.59;;;8.36;57.73
43450;BME280;29041;42.266;23.110;2023-12-28T00:19:58;96950.25;;;8.98;56.89
43450;BME280;29041;42.266;23.110;2023-12-28T00:22:45;96950.22;;;8.29;57.73
43450;BME280;29041;42.266;23.110;2023-12-28T00:25:32;96959.22;;;7.93;58.89
43450;BME280;29041;42.266;23.110;2023-12-28T00:28:19;96951.09;;;8.19;57.78
43450;BME280;29041;42.266;23.110;2023-12-28T00:31:06;96950.88;;;8.10;58.30
43450;BME280;29041;42.266;23.110;2023-12-28T00:33:53;96967.16;;;8.14;58.80
43450;BME280;29041;42.266;23.110;2023-12-28T00:36:42;96971.38;;;8.70;57.42
43450;BME280;29041;42.266;23.110;2023-12-28T00:39:29;96953.06;;;8.83;55.43
43450;BME280;29041;42.266;23.110;2023-12-28T00:42:17;96969.72;;;9.63;55.55
43450;BME280;29041;42.266;23.110;2023-12-28T00:45:05;96960.91;;;9.57;53.00
43450;BME280;29041;42.266;23.110;2023-12-28T00:47:53;96958.56;;;8.22;57.25
43450;BME280;29041;42.266;23.110;2023-12-28T00:50:42;96952.19;;;8.13;57.84
43450;BME280;29041;42.266;23.110;2023-12-28T00:53:31;96960.66;;;8.25;57.53
43450;BME280;29041;42.266;23.110;2023-12-28T00:56:18;96964.47;;;8.19;57.99
43450;BME280;29041;42.266;23.110;2023-12-28T00:59:06;96952.31;;;7.92;58.80
43450;BME280;29041;42.266;23.110;2023-12-28T01:01:53;96964.00;;;7.36;60.02
43450;BME280;29041;42.266;23.110;2023-12-28T01:04:40;96982.47;;;7.98;58.58
43450;BME280;29041;42.266;23.110;2023-12-28T01:07:27;96989.81;;;7.77;58.16
43450;BME280;29041;42.266;23.110;2023-12-28T01:10:26;96987.28;;;8.01;58.15
43450;BME280;29041;42.266;23.110;2023-12-28T01:13:13;96968.84;;;7.94;57.96
43450;BME280;29041;42.266;23.110;2023-12-28T01:16:00;96989.41;;;8.04;57.60
43450;BME280;29041;42.266;23.110;2023-12-28T01:18:47;96992.31;;;7.32;59.27
43450;BME280;29041;42.266;23.110;2023-12-28T01:21:34;96991.28;;;7.18;59.87
43450;BME280;29041;42.266;23.110;2023-12-28T01:24:21;96990.72;;;7.36;58.60
43450;BME280;29041;42.266;23.110;2023-12-28T01:27:11;97000.56;;;7.51;58.70
43450;BME280;29041;42.266;23.110;2023-12-28T01:29:58;96992.31;;;7.32;58.72
43450;BME280;29041;42.266;23.110;2023-12-28T01:32:45;96991.34;;;7.88;57.00
43450;BME280;29041;42.266;23.110;2023-12-28T01:35:32;96983.22;;;7.43;57.98
43450;BME280;29041;42.266;23.110;2023-12-28T01:38:19;96986.38;;;7.56;58.17
43450;BME280;29041;42.266;23.110;2023-12-28T01:41:07;96991.28;;;6.97;59.68
43450;BME280;29041;42.266;23.110;2023-12-28T01:43:55;96990.69;;;7.41;58.66
43450;BME280;29041;42.266;23.110;2023-12-28T01:46:42;96983.66;;;7.71;57.56
43450;BME280;29041;42.266;23.110;2023-12-28T01:49:30;96991.75;;;7.51;58.58
43450;BME280;29041;42.266;23.110;2023-12-28T01:52:17;96986.75;;;7.18;59.05
43450;BME280;29041;42.266;23.110;2023-12-28T01:55:05;97011.28;;;7.20;60.40
43450;BME280;29041;42.266;23.110;2023-12-28T01:57:54;97013.84;;;7.82;57.99
43450;BME280;29041;42.266;23.110;2023-12-28T02:00:43;97012.31;;;7.50;59.06
43450;BME280;29041;42.266;23.110;2023-12-28T02:03:31;97011.06;;;6.91;60.31
43450;BME280;29041;42.266;23.110;2023-12-28T02:06:18;97000.66;;;6.94;59.42
43450;BME280;29041;42.266;23.110;2023-12-28T02:09:07;97000.84;;;7.39;58.21
43450;BME280;29041;42.266;23.110;2023-12-28T02:11:55;97005.44;;;7.08;59.23
43450;BME280;29041;42.266;23.110;2023-12-28T02:14:42;96985.94;;;6.87;59.48
43450;BME280;29041;42.266;23.110;2023-12-28T02:17:34;96989.94;;;7.05;58.74
43450;BME280;29041;42.266;23.110;2023-12-28T02:20:23;96994.47;;;7.25;58.98
43450;BME280;29041;42.266;23.110;2023-12-28T02:23:11;97001.16;;;7.12;59.42
43450;BME280;29041;42.266;23.110;2023-12-28T02:25:59;96998.78;;;7.05;59.76
43450;BME280;29041;42.266;23.110;2023-12-28T02:28:46;96982.72;;;7.15;58.74
43450;BME280;29041;42.266;23.110;2023-12-28T02:31:44;96968.56;;;7.15;58.61
43450;BME280;29041;42.266;23.110;2023-12-28T02:34:34;96974.06;;;7.60;58.29
43450;BME280;29041;42.266;23.110;2023-12-28T02:37:25;96983.63;;;7.76;57.43
43450;BME280;29041;42.266;23.110;2023-12-28T02:40:14;96975.47;;;7.47;58.51
43450;BME280;29041;42.266;23.110;2023-12-28T02:43:05;96975.84;;;7.90;57.40
43450;BME280;29041;42.266;23.110;2023-12-28T02:45:52;96974.41;;;7.27;58.13
43450;BME280;29041;42.266;23.110;2023-12-28T02:48:39;96974.25;;;7.84;57.21
43450;BME280;29041;42.266;23.110;2023-12-28T02:51:27;96978.41;;;7.30;58.27
43450;BME280;29041;42.266;23.110;2023-12-28T02:54:14;96981.16;;;7.04;59.10
43450;BME280;29041;42.266;23.110;2023-12-28T02:57:01;96977.13;;;6.91;59.89
43450;BME280;29041;42.266;23.110;2023-12-28T02:59:49;96977.63;;;7.19;59.52
43450;BME280;29041;42.266;23.110;2023-12-28T03:02:37;96977.66;;;6.67;60.07
43450;BME280;29041;42.266;23.110;2023-12-28T03:05:24;96980.56;;;7.43;58.16
43450;BME280;29041;42.266;23.110;2023-12-28T03:08:11;96960.81;;;7.19;58.59
43450;BME280;29041;42.266;23.110;2023-12-28T03:10:58;96969.06;;;7.27;58.50
43450;BME280;29041;42.266;23.110;2023-12-28T03:13:45;96952.28;;;7.01;58.40
43450;BME280;29041;42.266;23.110;2023-12-28T03:16:34;96963.50;;;7.19;58.51
43450;BME280;29041;42.266;23.110;2023-12-28T03:19:21;96969.13;;;7.02;58.79
43450;BME280;29041;42.266;23.110;2023-12-28T03:22:08;96951.50;;;6.90;58.27
43450;BME280;29041;42.266;23.110;2023-12-28T03:24:55;96963.97;;;7.52;57.34
43450;BME280;29041;42.266;23.110;2023-12-28T03:27:42;96956.53;;;7.33;57.61
43450;BME280;29041;42.266;23.110;2023-12-28T03:30:29;96960.25;;;7.32;57.83
43450;BME280;29041;42.266;23.110;2023-12-28T03:33:18;96962.88;;;7.58;57.11
43450;BME280;29041;42.266;23.110;2023-12-28T03:36:06;96967.66;;;7.61;56.98
43450;BME280;29041;42.266;23.110;2023-12-28T03:38:53;96969.69;;;6.78;58.85
43450;BME280;29041;42.266;23.110;2023-12-28T03:41:40;96960.28;;;7.17;57.62
43450;BME280;29041;42.266;23.110;2023-12-28T03:44:27;96959.78;;;6.94;58.24
43450;BME280;29041;42.266;23.110;2023-12-28T03:47:14;96947.53;;;6.82;58.48
43450;BME280;29041;42.266;23.110;2023-12-28T03:50:04;96969.13;;;7.07;58.11
43450;BME280;29041;42.266;23.110;2023-12-28T03:52:51;96974.19;;;6.93;58.18
43450;BME280;29041;42.266;23.110;2023-12-28T03:55:39;96974.19;;;7.13;57.79
43450;BME280;29041;42.266;23.110;2023-12-28T03:58:26;96966.16;;;7.08;58.06
43450;BME280;29041;42.266;23.110;2023-12-28T04:01:13;96956.84;;;7.06;58.74
43450;BME280;29041;42.266;23.110;2023-12-28T04:04:01;96962.47;;;6.99;58.39
43450;BME280;29041;42.266;23.110;2023-12-28T04:06:49;96965.34;;;7.23;57.42
43450;BME280;29041;42.266;23.110;2023-12-28T04:09:36;96956.59;;;6.76;58.80
43450;BME280;29041;42.266;23.110;2023-12-28T04:12:24;96955.78;;;6.96;58.73
43450;BME280;29041;42.266;23.110;2023-12-28T04:15:11;96958.44;;;6.96;58.25
43450;BME280;29041;42.266;23.110;2023-12-28T04:17:58;96974.75;;;6.79;58.42
43450;BME280;29041;42.266;23.110;2023-12-28T04:20:45;96970.47;;;6.73;58.55
43450;BME280;29041;42.266;23.110;2023-12-28T04:23:33;96964.09;;;6.69;57.96
43450;BME280;29041;42.266;23.110;2023-12-28T04:26:21;96956.06;;;6.79;57.87
43450;BME280;29041;42.266;23.110;2023-12-28T04:29:08;96959.81;;;6.83;57.78
43450;BME280;29041;42.266;23.110;2023-12-28T04:31:55;96968.34;;;6.65;58.87
43450;BME280;29041;42.266;23.110;2023-12-28T04:34:42;96983.47;;;6.23;59.29
43450;BME280;29041;42.266;23.110;2023-12-28T04:37:29;96981.13;;;6.58;58.62
43450;BME280;29041;42.266;23.110;2023-12-28T04:40:18;96968.34;;;6.80;57.91
43450;BME280;29041;42.266;23.110;2023-12-28T04:43:05;96979.25;;;6.38;59.48
43450;BME280;29041;42.266;23.110;2023-12-28T04:45:52;96972.88;;;6.49;59.07
43450;BME280;29041;42.266;23.110;2023-12-28T04:48:39;96980.03;;;6.33;59.24
43450;BME280;29041;42.266;23.110;2023-12-28T04:51:27;96976.06;;;6.46;59.00
43450;BME280;29041;42.266;23.110;2023-12-28T04:54:15;96969.41;;;6.85;57.52
43450;BME280;29041;42.266;23.110;2023-12-28T04:57:03;96958.19;;;6.51;58.30
43450;BME280;29041;42.266;23.110;2023-12-28T04:59:51;96982.19;;;6.51;59.03
43450;BME280;29041;42.266;23.110;2023-12-28T05:02:38;96979.25;;;6.53;58.02
43450;BME280;29041;42.266;23.110;2023-12-28T05:05:25;96966.19;;;6.51;57.86
43450;BME280;29041;42.266;23.110;2023-12-28T05:08:12;96978.97;;;6.24;59.29
43450;BME280;29041;42.266;23.110;2023-12-28T05:10:59;96977.09;;;6.29;58.52
43450;BME280;29041;42.266;23.110;2023-12-28T05:13:48;96966.34;;;5.98;59.49
43450;BME280;29041;42.266;23.110;2023-12-28T05:16:35;96972.06;;;6.54;57.22
43450;BME280;29041;42.266;23.110;2023-12-28T05:19:22;96994.47;;;6.32;58.09
43450;BME280;29041;42.266;23.110;2023-12-28T05:22:09;97001.63;;;6.21;57.55
43450;BME280;29041;42.266;23.110;2023-12-28T05:24:56;97000.06;;;6.41;57.56
43450;BME280;29041;42.266;23.110;2023-12-28T05:27:44;96989.03;;;6.01;57.80
43450;BME280;29041;42.266;23.110;2023-12-28T05:30:32;97005.44;;;5.77;58.89
43450;BME280;29041;42.266;23.110;2023-12-28T05:33:19;96999.00;;;6.37;57.47
43450;BME280;29041;42.266;23.110;2023-12-28T05:36:07;96997.31;;;6.15;57.47
43450;BME280;29041;42.266;23.110;2023-12-28T05:38:54;97010.28;;;5.91;59.10
43450;BME280;29041;42.266;23.110;2023-12-28T05:41:41;97014.78;;;5.85;58.54
43450;BME280;29041;42.266;23.110;2023-12-28T05:44:28;97008.03;;;6.30;57.77
43450;BME280;29041;42.266;23.110;2023-12-28T05:47:17;97004.03;;;6.23;57.94
43450;BME280;29041;42.266;23.110;2023-12-28T05:50:04;97007.50;;;6.28;59.03
43450;BME280;29041;42.266;23.110;2023-12-28T05:52:52;97007.28;;;6.71;58.22
43450;BME280;29041;42.266;23.110;2023-12-28T05:55:39;97021.31;;;6.15;57.36
43450;BME280;29041;42.266;23.110;2023-12-28T05:58:26;97022.69;;;6.23;57.86
43450;BME280;29041;42.266;23.110;2023-12-28T06:01:13;97024.56;;;5.69;59.42
43450;BME280;29041;42.266;23.110;2023-12-28T06:04:02;97015.16;;;5.99;58.68
43450;BME280;29041;42.266;23.110;2023-12-28T06:06:49;97014.75;;;5.75;59.81
43450;BME280;29041;42.266;23.110;2023-12-28T06:09:36;97012.53;;;6.09;59.44
43450;BME280;29041;42.266;23.110;2023-12-28T06:12:24;97021.28;;;5.99;59.15
43450;BME280;29041;42.266;23.110;2023-12-28T06:15:12;97014.16;;;6.21;58.88
43450;BME280;29041;42.266;23.110;2023-12-28T06:17:59;97008.38;;;5.81;60.67
43450;BME280;29041;42.266;23.110;2023-12-28T06:20:49;96994.94;;;6.13;59.75
43450;BME280;29041;42.266;23.110;2023-12-28T06:23:36;97008.81;;;6.26;59.53
43450;BME280;29041;42.266;23.110;2023-12-28T06:26:23;97040.66;;;5.90;59.94
43450;BME280;29041;42.266;23.110;2023-12-28T06:29:15;97026.41;;;6.16;58.72
43450;BME280;29041;42.266;23.110;2023-12-28T06:32:03;97024.09;;;5.77;59.68
43450;BME280;29041;42.266;23.110;2023-12-28T06:34:50;97040.16;;;5.98;59.77
43450;BME280;29041;42.266;23.110;2023-12-28T06:37:39;97030.66;;;6.12;59.11
43450;BME280;29041;42.266;23.110;2023-12-28T06:40:26;97029.88;;;6.17;58.90
43450;BME280;29041;42.266;23.110;2023-12-28T06:43:13;97035.28;;;6.43;57.90
43450;BME280;29041;42.266;23.110;2023-12-28T06:46:01;97021.69;;;6.39;58.32
43450;BME280;29041;42.266;23.110;2023-12-28T06:48:53;97017.31;;;6.12;58.65
43450;BME280;29041;42.266;23.110;2023-12-28T06:51:40;97039.53;;;6.39;57.92
43450;BME280;29041;42.266;23.110;2023-12-28T06:54:30;97049.44;;;6.54;57.65
43450;BME280;29041;42.266;23.110;2023-12-28T06:57:17;97029.44;;;6.56;58.52
43450;BME280;29041;42.266;23.110;2023-12-28T07:00:07;97004.03;;;9.61;49.46
43450;BME280;29041;42.266;23.110;2023-12-28T07:02:54;97014.75;;;11.38;43.94
43450;BME280;29041;42.266;23.110;2023-12-28T07:05:41;97006.78;;;12.44;41.56
43450;BME280;29041;42.266;23.110;2023-12-28T07:08:28;97009.19;;;14.08;38.36
43450;BME280;29041;42.266;23.110;2023-12-28T07:11:17;97009.38;;;14.21;38.49
43450;BME280;29041;42.266;23.110;2023-12-28T07:14:04;97005.19;;;13.97;38.95
43450;BME280;29041;42.266;23.110;2023-12-28T07:16:51;97009.47;;;13.58;39.24
43450;BME280;29041;42.266;23.110;2023-12-28T07:19:38;97014.16;;;12.75;40.02
43450;BME280;29041;42.266;23.110;2023-12-28T07:22:25;97012.91;;;12.59;40.89
43450;BME280;29041;42.266;23.110;2023-12-28T07:25:12;96999.69;;;14.11;38.16
43450;BME280;29041;42.266;23.110;2023-12-28T07:28:01;97007.03;;;14.46;38.06
43450;BME280;29041;42.266;23.110;2023-12-28T07:30:48;97003.53;;;14.36;37.27
43450;BME280;29041;42.266;23.110;2023-12-28T07:33:35;96990.34;;;14.61;37.22
43450;BME280;29041;42.266;23.110;2023-12-28T07:36:22;97006.09;;;15.20;35.81
43450;BME280;29041;42.266;23.110;2023-12-28T07:39:10;96999.53;;;15.30;35.85
43450;BME280;29041;42.266;23.110;2023-12-28T07:41:57;97005.31;;;15.67;35.69
43450;BME280;29041;42.266;23.110;2023-12-28T07:44:46;96997.19;;;14.94;36.17
43450;BME280;29041;42.266;23.110;2023-12-28T07:47:33;97007.53;;;14.65;36.45
43450;BME280;29041;42.266;23.110;2023-12-28T07:50:20;97002.44;;;16.11;34.37
43450;BME280;29041;42.266;23.110;2023-12-28T07:53:08;97010.94;;;16.73;34.29
43450;BME280;29041;42.266;23.110;2023-12-28T07:55:56;97026.97;;;14.76;37.44
43450;BME280;29041;42.266;23.110;2023-12-28T07:58:43;97008.03;;;16.57;34.71
43450;BME280;29041;42.266;23.110;2023-12-28T08:01:31;97003.94;;;16.51;33.70
43450;BME280;29041;42.266;23.110;2023-12-28T08:04:19;97010.63;;;16.75;34.34
43450;BME280;29041;42.266;23.110;2023-12-28T08:07:06;96998.19;;;16.74;34.07
43450;BME280;29041;42.266;23.110;2023-12-28T08:09:57;97000.19;;;17.19;33.39
43450;BME280;29041;42.266;23.110;2023-12-28T08:12:44;97004.38;;;16.53;34.04
43450;BME280;29041;42.266;23.110;2023-12-28T08:15:32;96990.44;;;15.35;36.01
43450;BME280;29041;42.266;23.110;2023-12-28T08:18:21;96995.13;;;16.75;33.93
43450;BME280;29041;42.266;23.110;2023-12-28T08:21:08;96978.38;;;16.10;35.42
43450;BME280;29041;42.266;23.110;2023-12-28T08:23:55;96999.38;;;15.83;36.09
43450;BME280;29041;42.266;23.110;2023-12-28T08:26:42;96998.00;;;16.07;35.45
43450;BME280;29041;42.266;23.110;2023-12-28T08:29:29;96995.81;;;15.44;37.21
43450;BME280;29041;42.266;23.110;2023-12-28T08:32:16;96972.66;;;15.25;37.02
43450;BME280;29041;42.266;23.110;2023-12-28T08:35:05;96994.50;;;14.67;38.63
43450;BME280;29041;42.266;23.110;2023-12-28T08:37:53;96987.69;;;14.79;38.78
43450;BME280;29041;42.266;23.110;2023-12-28T08:40:40;96994.31;;;15.07;38.97
43450;BME280;29041;42.266;23.110;2023-12-28T08:43:27;96991.13;;;14.53;40.16
43450;BME280;29041;42.266;23.110;2023-12-28T08:46:14;96987.50;;;12.88;43.28
43450;BME280;29041;42.266;23.110;2023-12-28T08:49:02;96989.13;;;12.38;44.67
43450;BME280;29041;42.266;23.110;2023-12-28T08:51:50;96959.16;;;12.53;45.38
43450;BME280;29041;42.266;23.110;2023-12-28T08:54:37;96962.94;;;12.52;45.55
43450;BME280;29041;42.266;23.110;2023-12-28T08:57:24;96975.91;;;12.28;46.33
43450;BME280;29041;42.266;23.110;2023-12-28T09:00:12;96959.84;;;12.82;46.35
43450;BME280;29041;42.266;23.110;2023-12-28T09:03:00;96947.38;;;13.17;46.08
43450;BME280;29041;42.266;23.110;2023-12-28T09:05:47;96980.38;;;12.92;46.49
43450;BME280;29041;42.266;23.110;2023-12-28T09:08:36;96938.38;;;12.99;46.58
43450;BME280;29041;42.266;23.110;2023-12-28T09:11:23;96960.22;;;13.43;46.33
43450;BME280;29041;42.266;23.110;2023-12-28T09:14:10;96938.22;;;13.27;46.40
43450;BME280;29041;42.266;23.110;2023-12-28T09:16:57;96945.94;;;13.92;45.19
43450;BME280;29041;42.266;23.110;2023-12-28T09:19:45;96945.56;;;13.76;46.28
43450;BME280;29041;42.266;23.110;2023-12-28T09:22:32;96930.03;;;13.82;45.59
43450;BME280;29041;42.266;23.110;2023-12-28T09:25:20;96937.97;;;13.78;46.12
43450;BME280;29041;42.266;23.110;2023-12-28T09:28:07;96925.56;;;13.68;46.21
43450;BME280;29041;42.266;23.110;2023-12-28T09:30:54;96919.72;;;15.06;44.20
43450;BME280;29041;42.266;23.110;2023-12-28T09:33:43;96906.59;;;14.43;44.65
43450;BME280;29041;42.266;23.110;2023-12-28T09:36:30;96897.28;;;15.83;42.22
43450;BME280;29041;42.266;23.110;2023-12-28T09:39:17;96892.59;;;14.68;44.84
43450;BME280;29041;42.266;23.110;2023-12-28T09:42:11;96896.72;;;14.48;45.53
43450;BME280;29041;42.266;23.110;2023-12-28T09:45:02;96893.97;;;15.39;43.43
43450;BME280;29041;42.266;23.110;2023-12-28T09:47:49;96891.19;;;15.57;42.60
43450;BME280;29041;42.266;23.110;2023-12-28T09:50:37;96884.47;;;16.35;40.45
43450;BME280;29041;42.266;23.110;2023-12-28T09:53:25;96878.66;;;16.24;41.37
43450;BME280;29041;42.266;23.110;2023-12-28T09:56:13;96870.63;;;16.15;41.25
43450;BME280;29041;42.266;23.110;2023-12-28T09:59:02;96854.47;;;15.77;42.54
43450;BME280;29041;42.266;23.110;2023-12-28T10:01:51;96856.34;;;15.25;43.61
43450;BME280;29041;42.266;23.110;2023-12-28T10:04:40;96840.78;;;15.73;43.42
43450;BME280;29041;42.266;23.110;2023-12-28T10:07:27;96842.97;;;16.89;40.68
43450;BME280;29041;42.266;23.110;2023-12-28T10:10:14;96832.94;;;15.80;42.33
43450;BME280;29041;42.266;23.110;2023-12-28T10:13:03;96821.91;;;17.44;40.42
43450;BME280;29041;42.266;23.110;2023-12-28T10:15:51;96811.81;;;17.08;40.79
43450;BME280;29041;42.266;23.110;2023-12-28T10:18:40;96805.50;;;17.94;39.29
43450;BME280;29041;42.266;23.110;2023-12-28T10:21:28;96808.75;;;17.09;40.46
43450;BME280;29041;42.266;23.110;2023-12-28T10:24:19;96800.72;;;16.88;39.66
43450;BME280;29041;42.266;23.110;2023-12-28T10:27:08;96762.28;;;16.74;39.82
43450;BME280;29041;42.266;23.110;2023-12-28T10:29:58;96759.72;;;17.02;39.65
43450;BME280;29041;42.266;23.110;2023-12-28T10:32:50;96761.78;;;18.72;37.56
43450;BME280;29041;42.266;23.110;2023-12-28T10:35:38;96767.31;;;17.62;40.00
43450;BME280;29041;42.266;23.110;2023-12-28T10:38:25;96758.81;;;17.76;38.87
43450;BME280;29041;42.266;23.110;2023-12-28T10:41:16;96742.16;;;17.37;39.67
43450;BME280;29041;42.266;23.110;2023-12-28T10:44:04;96728.63;;;18.06;39.55
43450;BME280;29041;42.266;23.110;2023-12-28T10:46:55;96741.91;;;18.23;38.46
43450;BME280;29041;42.266;23.110;2023-12-28T10:49:47;96733.50;;;18.29;38.21
43450;BME280;29041;42.266;23.110;2023-12-28T10:52:35;96723.56;;;18.20;39.21
43450;BME280;29041;42.266;23.110;2023-12-28T10:55:30;96709.03;;;18.77;36.31
43450;BME280;29041;42.266;23.110;2023-12-28T10:58:28;96709.94;;;17.76;38.66
43450;BME280;29041;42.266;23.110;2023-12-28T11:01:24;96715.09;;;18.70;37.68
43450;BME280;29041;42.266;23.110;2023-12-28T11:04:19;96712.34;;;18.22;38.39
43450;BME280;29041;42.266;23.110;2023-12-28T11:07:10;96705.66;;;17.91;39.28
43450;BME280;29041;42.266;23.110;2023-12-28T11:10:00;96697.78;;;17.98;38.88
43450;BME280;29041;42.266;23.110;2023-12-28T11:12:51;96692.00;;;17.87;38.93
43450;BME280;29041;42.266;23.110;2023-12-28T11:15:39;96692.41;;;18.46;38.21
43450;BME280;29041;42.266;23.110;2023-12-28T11:18:28;96684.91;;;18.59;37.26
43450;BME280;29041;42.266;23.110;2023-12-28T11:21:16;96677.56;;;18.28;38.51
43450;BME280;29041;42.266;23.110;2023-12-28T11:24:05;96668.91;;;20.70;34.92
43450;BME280;29041;42.266;23.110;2023-12-28T11:26:53;96662.53;;;20.39;35.47
43450;BME280;29041;42.266;23.110;2023-12-28T11:29:41;96669.84;;;19.88;35.83
43450;BME280;29041;42.266;23.110;2023-12-28T11:32:32;96654.47;;;19.01;37.88
43450;BME280;29041;42.266;23.110;2023-12-28T11:35:19;96664.31;;;19.45;36.82
43450;BME280;29041;42.266;23.110;2023-12-28T11:38:09;96660.16;;;19.32;36.95
43450;BME280;29041;42.266;23.110;2023-12-28T11:41:03;96653.59;;;20.38;35.61
43450;BME280;29041;42.266;23.110;2023-12-28T11:43:54;96653.44;;;18.42;38.58
43450;BME280;29041;42.266;23.110;2023-12-28T11:46:41;96650.06;;;18.81;38.86
43450;BME280;29041;42.266;23.110;2023-12-28T11:49:28;96650.91;;;19.95;36.28
43450;BME280;29041;42.266;23.110;2023-12-28T11:52:22;96645.00;;;19.93;36.43
43450;BME280;29041;42.266;23.110;2023-12-28T11:55:10;96632.13;;;23.24;31.44
43450;BME280;29041;42.266;23.110;2023-12-28T11:58:00;96630.09;;;23.13;30.73
43450;BME280;29041;42.266;23.110;2023-12-28T12:00:49;96622.50;;;20.43;35.12
43450;BME280;29041;42.266;23.110;2023-12-28T12:03:36;96626.50;;;21.64;33.37
43450;BME280;29041;42.266;23.110;2023-12-28T12:06:24;96632.56;;;19.53;37.38
43450;BME280;29041;42.266;23.110;2023-12-28T12:09:11;96612.84;;;23.98;29.79
43450;BME280;29041;42.266;23.110;2023-12-28T12:11:59;96608.81;;;20.66;34.22
43450;BME280;29041;42.266;23.110;2023-12-28T12:14:47;96604.88;;;21.85;33.02
43450;BME280;29041;42.266;23.110;2023-12-28T12:17:34;96601.28;;;22.68;31.26
43450;BME280;29041;42.266;23.110;2023-12-28T12:20:22;96596.13;;;21.69;32.90
43450;BME280;29041;42.266;23.110;2023-12-28T12:23:09;96607.31;;;19.76;35.87
43450;BME280;29041;42.266;23.110;2023-12-28T12:25:58;96598.72;;;20.70;34.63
43450;BME280;29041;42.266;23.110;2023-12-28T12:28:46;96600.94;;;20.11;36.03
43450;BME280;29041;42.266;23.110;2023-12-28T12:31:35;96593.06;;;20.56;34.98
43450;BME280;29041;42.266;23.110;2023-12-28T12:34:23;96601.53;;;21.01;34.04
43450;BME280;29041;42.266;23.110;2023-12-28T12:37:11;96593.84;;;22.68;31.28
43450;BME280;29041;42.266;23.110;2023-12-28T12:39:58;96591.25;;;22.34;31.00
43450;BME280;29041;42.266;23.110;2023-12-28T12:42:52;96596.47;;;22.50;31.08
43450;BME280;29041;42.266;23.110;2023-12-28T12:45:39;96592.09;;;23.05;30.84
43450;BME280;29041;42.266;23.110;2023-12-28T12:48:28;96579.91;;;22.91;30.79
43450;BME280;29041;42.266;23.110;2023-12-28T12:51:26;96587.31;;;23.86;29.56
43450;BME280;29041;42.266;23.110;2023-12-28T12:54:17;96566.94;;;22.81;31.27
43450;BME280;29041;42.266;23.110;2023-12-28T12:57:05;96575.56;;;23.86;30.10
43450;BME280;29041;42.266;23.110;2023-12-28T12:59:52;96564.56;;;20.76;33.98
43450;BME280;29041;42.266;23.110;2023-12-28T13:02:40;96576.53;;;20.45;34.52
43450;BME280;29041;42.266;23.110;2023-12-28T13:05:29;96572.38;;;23.62;30.35
43450;BME280;29041;42.266;23.110;2023-12-28T13:08:16;96576.91;;;20.70;33.75
43450;BME280;29041;42.266;23.110;2023-12-28T13:11:04;96561.31;;;22.56;31.39
43450;BME280;29041;42.266;23.110;2023-12-28T13:13:52;96561.91;;;22.90;30.96
43450;BME280;29041;42.266;23.110;2023-12-28T13:16:42;96558.84;;;23.03;30.66
43450;BME280;29041;42.266;23.110;2023-12-28T13:19:29;96553.63;;;22.72;31.33
43450;BME280;29041;42.266;23.110;2023-12-28T13:22:19;96555.94;;;21.73;32.62
43450;BME280;29041;42.266;23.110;2023-12-28T13:25:08;96551.38;;;22.33;31.61
43450;BME280;29041;42.266;23.110;2023-12-28T13:27:55;96566.41;;;23.27;30.33
43450;BME280;29041;42.266;23.110;2023-12-28T13:30:46;96571.47;;;23.18;30.85
43450;BME280;29041;42.266;23.110;2023-12-28T13:33:36;96557.97;;;22.28;31.45
43450;BME280;29041;42.266;23.110;2023-12-28T13:36:24;96555.28;;;21.49;32.64
43450;BME280;29041;42.266;23.110;2023-12-28T13:39:14;96519.72;;;19.31;35.78
43450;BME280;29041;42.266;23.110;2023-12-28T13:42:03;96564.59;;;20.26;36.01
43450;BME280;29041;42.266;23.110;2023-12-28T13:44:50;96570.81;;;19.80;35.94
43450;BME280;29041;42.266;23.110;2023-12-28T13:47:37;96572.81;;;19.21;37.33
43450;BME280;29041;42.266;23.110;2023-12-28T13:50:27;96555.47;;;20.69;35.11
43450;BME280;29041;42.266;23.110;2023-12-28T13:53:16;96572.47;;;20.85;33.97
43450;BME280;29041;42.266;23.110;2023-12-28T13:56:07;96551.19;;;21.32;33.87
43450;BME280;29041;42.266;23.110;2023-12-28T13:58:56;96543.97;;;21.47;33.45
43450;BME280;29041;42.266;23.110;2023-12-28T14:01:43;96565.69;;;21.70;32.96
43450;BME280;29041;42.266;23.110;2023-12-28T14:04:30;96556.47;;;20.30;35.42
43450;BME280;29041;42.266;23.110;2023-12-28T14:07:17;96553.97;;;21.02;34.13
43450;BME280;29041;42.266;23.110;2023-12-28T14:10:09;96540.06;;;20.26;35.42
43450;BME280;29041;42.266;23.110;2023-12-28T14:12:58;96564.13;;;21.05;34.32
43450;BME280;29041;42.266;23.110;2023-12-28T14:15:46;96558.50;;;20.64;34.92
43450;BME280;29041;42.266;23.110;2023-12-28T14:18:35;96550.38;;;21.28;34.01
43450;BME280;29041;42.266;23.110;2023-12-28T14:21:25;96543.97;;;20.02;36.36
43450;BME280;29041;42.266;23.110;2023-12-28T14:24:13;96552.44;;;20.47;35.86
43450;BME280;29041;42.266;23.110;2023-12-28T14:27:01;96547.59;;;20.37;34.99
43450;BME280;29041;42.266;23.110;2023-12-28T14:29:50;96535.56;;;19.88;35.49
43450;BME280;29041;42.266;23.110;2023-12-28T14:32:38;96549.63;;;19.70;36.27
43450;BME280;29041;42.266;23.110;2023-12-28T14:35:25;96560.06;;;19.45;36.71
43450;BME280;29041;42.266;23.110;2023-12-28T14:40:51;96560.75;;;20.81;35.22
43450;BME280;29041;42.266;23.110;2023-12-28T14:49:28;96533.78;;;18.94;38.23
43450;BME280;29041;42.266;23.110;2023-12-28T14:52:15;96533.34;;;18.92;37.39